sensor_id;sensor_type;location;lat;lon;timestamp;P1;durP1;ratioP1;P2;durP2;ratioP2
9374;SDS011;4727;51.202;6.344;2023-06-19T00:00:02;3.50;;;3.20;;
9374;SDS011;4727;51.202;6.344;2023-06-19T00:02:32;3.80;;;3.50;;
9374;SDS011;4727;51.202;6.344;2023-06-19T00:04:58;3.90;;;3.60;;
9374;SDS011;4727;51.202;6.344;2023-06-19T00:07:23;4.05;;;3.75;;
9374;SDS011;4727;51.202;6.344;2023-06-19T00:09:49;3.88;;;3.58;;
9374;SDS011;4727;51.202;6.344;2023-06-19T00:12:14;4.97;;;4.47;;
9374;SDS011;4727;51.202;6.344;2023-06-19T00:14:40;4.72;;;4.32;;
9374;SDS011;4727;51.202;6.344;2023-06-19T00:17:06;4.32;;;3.92;;
9374;SDS011;4727;51.202;6.344;2023-06-19T00:19:32;4.30;;;3.90;;
9374;SDS011;4727;51.202;6.344;2023-06-19T00:22:01;3.90;;;3.60;;
9374;SDS011;4727;51.202;6.344;2023-06-19T00:24:28;4.43;;;4.10;;
9374;SDS011;4727;51.202;6.344;2023-06-19T00:26:53;4.43;;;4.03;;
9374;SDS011;4727;51.202;6.344;2023-06-19T00:29:19;4.15;;;3.75;;
9374;SDS011;4727;51.202;6.344;2023-06-19T00:31:44;5.20;;;3.90;;
9374;SDS011;4727;51.202;6.344;2023-06-19T00:34:10;4.13;;;3.83;;
9374;SDS011;4727;51.202;6.344;2023-06-19T00:36:35;4.28;;;3.88;;
9374;SDS011;4727;51.202;6.344;2023-06-19T00:39:05;4.28;;;3.88;;
9374;SDS011;4727;51.202;6.344;2023-06-19T00:41:33;4.53;;;3.72;;
9374;SDS011;4727;51.202;6.344;2023-06-19T00:44:00;4.60;;;4.20;;
9374;SDS011;4727;51.202;6.344;2023-06-19T00:46:26;4.00;;;3.70;;
9374;SDS011;4727;51.202;6.344;2023-06-19T00:48:52;4.28;;;3.97;;
9374;SDS011;4727;51.202;6.344;2023-06-19T00:51:17;4.18;;;3.88;;
9374;SDS011;4727;51.202;6.344;2023-06-19T00:53:43;4.20;;;3.90;;
9374;SDS011;4727;51.202;6.344;2023-06-19T00:56:09;4.43;;;4.13;;
9374;SDS011;4727;51.202;6.344;2023-06-19T00:58:34;4.05;;;3.67;;
9374;SDS011;4727;51.202;6.344;2023-06-19T01:01:00;3.73;;;3.43;;
9374;SDS011;4727;51.202;6.344;2023-06-19T01:03:27;4.17;;;3.47;;
9374;SDS011;4727;51.202;6.344;2023-06-19T01:05:53;6.32;;;3.67;;
9374;SDS011;4727;51.202;6.344;2023-06-19T01:11:00;3.43;;;3.13;;
9374;SDS011;4727;51.202;6.344;2023-06-19T01:13:39;4.20;;;3.80;;
9374;SDS011;4727;51.202;6.344;2023-06-19T01:16:07;4.00;;;3.70;;
9374;SDS011;4727;51.202;6.344;2023-06-19T01:18:34;4.50;;;3.97;;
9374;SDS011;4727;51.202;6.344;2023-06-19T01:21:10;5.47;;;3.75;;
9374;SDS011;4727;51.202;6.344;2023-06-19T01:23:38;4.38;;;3.97;;
9374;SDS011;4727;51.202;6.344;2023-06-19T01:26:03;3.40;;;3.20;;
9374;SDS011;4727;51.202;6.344;2023-06-19T01:28:29;3.80;;;3.50;;
9374;SDS011;4727;51.202;6.344;2023-06-19T01:30:54;3.90;;;3.60;;
9374;SDS011;4727;51.202;6.344;2023-06-19T01:33:25;3.80;;;3.43;;
9374;SDS011;4727;51.202;6.344;2023-06-19T01:35:53;3.87;;;3.57;;
9374;SDS011;4727;51.202;6.344;2023-06-19T01:38:21;3.50;;;3.30;;
9374;SDS011;4727;51.202;6.344;2023-06-19T01:40:50;4.13;;;3.83;;
9374;SDS011;4727;51.202;6.344;2023-06-19T01:43:20;3.88;;;3.47;;
9374;SDS011;4727;51.202;6.344;2023-06-19T01:45:48;3.80;;;3.50;;
9374;SDS011;4727;51.202;6.344;2023-06-19T01:48:14;3.60;;;3.30;;
9374;SDS011;4727;51.202;6.344;2023-06-19T01:50:39;3.27;;;3.07;;
9374;SDS011;4727;51.202;6.344;2023-06-19T01:53:06;3.40;;;3.20;;
9374;SDS011;4727;51.202;6.344;2023-06-19T01:55:31;3.73;;;3.43;;
9374;SDS011;4727;51.202;6.344;2023-06-19T01:57:57;6.67;;;4.00;;
9374;SDS011;4727;51.202;6.344;2023-06-19T02:00:23;4.10;;;3.50;;
9374;SDS011;4727;51.202;6.344;2023-06-19T02:02:48;6.00;;;3.80;;
9374;SDS011;4727;51.202;6.344;2023-06-19T02:05:14;3.77;;;3.47;;
9374;SDS011;4727;51.202;6.344;2023-06-19T02:07:40;3.83;;;3.50;;
9374;SDS011;4727;51.202;6.344;2023-06-19T02:10:06;3.77;;;3.47;;
9374;SDS011;4727;51.202;6.344;2023-06-19T02:12:33;3.43;;;2.93;;
9374;SDS011;4727;51.202;6.344;2023-06-19T02:14:58;3.73;;;3.43;;
9374;SDS011;4727;51.202;6.344;2023-06-19T02:17:24;3.10;;;2.80;;
9374;SDS011;4727;51.202;6.344;2023-06-19T02:19:50;3.40;;;3.10;;
9374;SDS011;4727;51.202;6.344;2023-06-19T02:22:16;3.93;;;3.03;;
9374;SDS011;4727;51.202;6.344;2023-06-19T02:24:42;2.75;;;2.55;;
9374;SDS011;4727;51.202;6.344;2023-06-19T02:27:09;2.67;;;2.47;;
9374;SDS011;4727;51.202;6.344;2023-06-19T02:29:35;3.03;;;2.83;;
9374;SDS011;4727;51.202;6.344;2023-06-19T02:32:02;2.40;;;2.30;;
9374;SDS011;4727;51.202;6.344;2023-06-19T02:34:28;3.20;;;2.90;;
9374;SDS011;4727;51.202;6.344;2023-06-19T02:36:53;2.73;;;2.53;;
9374;SDS011;4727;51.202;6.344;2023-06-19T02:39:19;2.50;;;2.30;;
9374;SDS011;4727;51.202;6.344;2023-06-19T02:41:45;3.28;;;2.97;;
9374;SDS011;4727;51.202;6.344;2023-06-19T02:44:12;3.08;;;2.78;;
9374;SDS011;4727;51.202;6.344;2023-06-19T02:46:38;2.67;;;2.47;;
9374;SDS011;4727;51.202;6.344;2023-06-19T03:03:20;2.83;;;2.63;;
9374;SDS011;4727;51.202;6.344;2023-06-19T15:11:52;2.05;;;1.95;;
9374;SDS011;4727;51.202;6.344;2023-06-19T15:14:18;2.40;;;2.20;;
9374;SDS011;4727;51.202;6.344;2023-06-19T15:16:44;2.30;;;2.17;;
9374;SDS011;4727;51.202;6.344;2023-06-19T15:19:10;2.72;;;2.53;;
9374;SDS011;4727;51.202;6.344;2023-06-19T15:21:35;2.85;;;2.65;;
9374;SDS011;4727;51.202;6.344;2023-06-19T15:24:01;3.65;;;2.47;;
9374;SDS011;4727;51.202;6.344;2023-06-19T15:26:27;2.10;;;2.00;;
9374;SDS011;4727;51.202;6.344;2023-06-19T15:28:52;2.70;;;2.50;;
9374;SDS011;4727;51.202;6.344;2023-06-19T15:31:20;2.33;;;2.20;;
9374;SDS011;4727;51.202;6.344;2023-06-19T15:33:47;2.65;;;2.45;;
9374;SDS011;4727;51.202;6.344;2023-06-19T15:36:13;2.47;;;2.38;;
9374;SDS011;4727;51.202;6.344;2023-06-19T15:38:38;2.97;;;2.60;;
9374;SDS011;4727;51.202;6.344;2023-06-19T15:41:04;3.47;;;3.17;;
9374;SDS011;4727;51.202;6.344;2023-06-19T15:43:30;2.83;;;2.63;;
9374;SDS011;4727;51.202;6.344;2023-06-19T15:45:56;2.95;;;2.70;;
9374;SDS011;4727;51.202;6.344;2023-06-19T15:48:22;2.97;;;2.50;;
9374;SDS011;4727;51.202;6.344;2023-06-19T15:50:48;2.47;;;2.28;;
9374;SDS011;4727;51.202;6.344;2023-06-19T15:53:13;2.63;;;2.42;;
9374;SDS011;4727;51.202;6.344;2023-06-19T15:55:39;3.58;;;2.88;;
9374;SDS011;4727;51.202;6.344;2023-06-19T15:58:06;2.90;;;2.75;;
9374;SDS011;4727;51.202;6.344;2023-06-19T16:00:32;2.20;;;2.00;;
9374;SDS011;4727;51.202;6.344;2023-06-19T16:02:58;2.80;;;2.60;;
9374;SDS011;4727;51.202;6.344;2023-06-19T16:05:24;2.75;;;2.55;;
9374;SDS011;4727;51.202;6.344;2023-06-19T16:07:50;2.40;;;2.30;;
9374;SDS011;4727;51.202;6.344;2023-06-19T16:10:17;2.88;;;2.58;;
9374;SDS011;4727;51.202;6.344;2023-06-19T16:12:42;2.25;;;2.15;;
9374;SDS011;4727;51.202;6.344;2023-06-19T16:15:08;4.18;;;2.40;;
9374;SDS011;4727;51.202;6.344;2023-06-19T16:17:37;2.85;;;2.63;;
9374;SDS011;4727;51.202;6.344;2023-06-19T16:20:04;2.70;;;2.42;;
9374;SDS011;4727;51.202;6.344;2023-06-19T16:22:30;3.08;;;2.88;;
9374;SDS011;4727;51.202;6.344;2023-06-19T16:24:56;2.67;;;2.47;;
9374;SDS011;4727;51.202;6.344;2023-06-19T16:27:22;2.10;;;2.00;;
9374;SDS011;4727;51.202;6.344;2023-06-19T16:29:47;3.60;;;3.00;;
9374;SDS011;4727;51.202;6.344;2023-06-19T16:32:13;2.65;;;2.45;;
9374;SDS011;4727;51.202;6.344;2023-06-19T16:34:38;5.03;;;2.67;;
9374;SDS011;4727;51.202;6.344;2023-06-19T16:37:04;4.10;;;2.90;;
9374;SDS011;4727;51.202;6.344;2023-06-19T16:39:30;2.78;;;2.58;;
9374;SDS011;4727;51.202;6.344;2023-06-19T16:41:56;3.00;;;2.80;;
9374;SDS011;4727;51.202;6.344;2023-06-19T16:44:21;3.00;;;2.80;;
9374;SDS011;4727;51.202;6.344;2023-06-19T16:46:47;3.08;;;2.88;;
9374;SDS011;4727;51.202;6.344;2023-06-19T16:49:13;2.88;;;2.67;;
9374;SDS011;4727;51.202;6.344;2023-06-19T16:51:39;2.97;;;2.45;;
9374;SDS011;4727;51.202;6.344;2023-06-19T16:54:04;2.83;;;2.63;;
9374;SDS011;4727;51.202;6.344;2023-06-19T16:56:30;3.50;;;2.72;;
9374;SDS011;4727;51.202;6.344;2023-06-19T16:58:56;3.60;;;2.58;;
9374;SDS011;4727;51.202;6.344;2023-06-19T17:01:22;2.63;;;2.53;;
9374;SDS011;4727;51.202;6.344;2023-06-19T17:03:47;3.10;;;2.80;;
9374;SDS011;4727;51.202;6.344;2023-06-19T17:06:13;3.00;;;2.80;;
9374;SDS011;4727;51.202;6.344;2023-06-19T17:08:38;4.43;;;2.88;;
9374;SDS011;4727;51.202;6.344;2023-06-19T17:11:04;3.67;;;3.38;;
9374;SDS011;4727;51.202;6.344;2023-06-19T17:13:29;3.30;;;2.67;;
9374;SDS011;4727;51.202;6.344;2023-06-19T17:15:55;2.78;;;2.58;;
9374;SDS011;4727;51.202;6.344;2023-06-19T17:18:20;3.05;;;2.50;;
9374;SDS011;4727;51.202;6.344;2023-06-19T17:20:46;2.97;;;2.78;;
9374;SDS011;4727;51.202;6.344;2023-06-19T17:23:12;3.20;;;3.00;;
9374;SDS011;4727;51.202;6.344;2023-06-19T17:25:37;3.70;;;2.75;;
9374;SDS011;4727;51.202;6.344;2023-06-19T17:28:03;2.60;;;2.50;;
9374;SDS011;4727;51.202;6.344;2023-06-19T17:30:28;2.88;;;2.60;;
9374;SDS011;4727;51.202;6.344;2023-06-19T17:32:54;3.08;;;2.78;;
9374;SDS011;4727;51.202;6.344;2023-06-19T17:35:19;2.92;;;2.72;;
9374;SDS011;4727;51.202;6.344;2023-06-19T17:37:45;2.55;;;2.40;;
9374;SDS011;4727;51.202;6.344;2023-06-19T17:40:11;2.50;;;2.30;;
9374;SDS011;4727;51.202;6.344;2023-06-19T17:42:41;2.55;;;2.35;;
9374;SDS011;4727;51.202;6.344;2023-06-19T17:45:07;4.97;;;2.50;;
9374;SDS011;4727;51.202;6.344;2023-06-19T17:47:34;5.45;;;2.78;;
9374;SDS011;4727;51.202;6.344;2023-06-19T17:50:00;2.75;;;2.15;;
9374;SDS011;4727;51.202;6.344;2023-06-19T17:52:26;2.90;;;2.70;;
9374;SDS011;4727;51.202;6.344;2023-06-19T17:54:52;2.80;;;2.60;;
9374;SDS011;4727;51.202;6.344;2023-06-19T17:57:20;3.08;;;2.83;;
9374;SDS011;4727;51.202;6.344;2023-06-19T17:59:46;3.40;;;3.10;;
9374;SDS011;4727;51.202;6.344;2023-06-19T18:02:12;3.20;;;2.90;;
9374;SDS011;4727;51.202;6.344;2023-06-19T18:04:38;2.72;;;2.53;;
9374;SDS011;4727;51.202;6.344;2023-06-19T18:07:04;3.30;;;2.97;;
9374;SDS011;4727;51.202;6.344;2023-06-19T18:09:36;3.80;;;2.92;;
9374;SDS011;4727;51.202;6.344;2023-06-19T18:12:15;4.50;;;3.03;;
9374;SDS011;4727;51.202;6.344;2023-06-19T18:14:42;6.03;;;4.63;;
9374;SDS011;4727;51.202;6.344;2023-06-19T18:17:11;2.78;;;2.65;;
9374;SDS011;4727;51.202;6.344;2023-06-19T18:19:38;2.63;;;2.42;;
9374;SDS011;4727;51.202;6.344;2023-06-19T18:22:04;2.83;;;2.63;;
9374;SDS011;4727;51.202;6.344;2023-06-19T18:24:29;2.90;;;2.70;;
9374;SDS011;4727;51.202;6.344;2023-06-19T18:26:55;2.58;;;2.38;;
9374;SDS011;4727;51.202;6.344;2023-06-19T18:29:20;2.95;;;2.75;;
9374;SDS011;4727;51.202;6.344;2023-06-19T18:31:48;3.42;;;2.75;;
9374;SDS011;4727;51.202;6.344;2023-06-19T18:34:14;2.97;;;2.78;;
9374;SDS011;4727;51.202;6.344;2023-06-19T18:36:39;2.70;;;2.50;;
9374;SDS011;4727;51.202;6.344;2023-06-19T18:39:05;2.83;;;2.60;;
9374;SDS011;4727;51.202;6.344;2023-06-19T18:41:31;2.80;;;2.60;;
9374;SDS011;4727;51.202;6.344;2023-06-19T18:43:57;3.53;;;2.38;;
9374;SDS011;4727;51.202;6.344;2023-06-19T18:46:23;2.92;;;2.72;;
9374;SDS011;4727;51.202;6.344;2023-06-19T18:48:48;3.40;;;3.05;;
9374;SDS011;4727;51.202;6.344;2023-06-19T18:51:14;4.28;;;2.80;;
9374;SDS011;4727;51.202;6.344;2023-06-19T18:53:40;2.72;;;2.53;;
9374;SDS011;4727;51.202;6.344;2023-06-19T18:56:05;4.47;;;2.90;;
9374;SDS011;4727;51.202;6.344;2023-06-19T18:58:31;3.13;;;2.80;;
9374;SDS011;4727;51.202;6.344;2023-06-19T19:00:57;3.00;;;2.80;;
9374;SDS011;4727;51.202;6.344;2023-06-19T19:03:23;2.63;;;2.42;;
9374;SDS011;4727;51.202;6.344;2023-06-19T19:05:48;3.17;;;2.90;;
9374;SDS011;4727;51.202;6.344;2023-06-19T19:08:14;2.90;;;2.70;;
9374;SDS011;4727;51.202;6.344;2023-06-19T19:10:40;3.38;;;3.17;;
9374;SDS011;4727;51.202;6.344;2023-06-19T19:13:06;3.95;;;3.08;;
9374;SDS011;4727;51.202;6.344;2023-06-19T19:15:35;3.10;;;2.80;;
9374;SDS011;4727;51.202;6.344;2023-06-19T19:18:01;3.90;;;3.30;;
9374;SDS011;4727;51.202;6.344;2023-06-19T19:20:28;4.28;;;3.22;;
9374;SDS011;4727;51.202;6.344;2023-06-19T19:22:53;3.00;;;2.70;;
9374;SDS011;4727;51.202;6.344;2023-06-19T19:25:19;4.65;;;2.90;;
9374;SDS011;4727;51.202;6.344;2023-06-19T19:27:44;3.25;;;2.92;;
9374;SDS011;4727;51.202;6.344;2023-06-19T19:30:10;4.30;;;3.50;;
9374;SDS011;4727;51.202;6.344;2023-06-19T19:32:36;2.63;;;2.42;;
9374;SDS011;4727;51.202;6.344;2023-06-19T19:35:02;2.97;;;2.78;;
9374;SDS011;4727;51.202;6.344;2023-06-19T19:37:28;3.20;;;2.95;;
9374;SDS011;4727;51.202;6.344;2023-06-19T19:39:55;3.38;;;3.08;;
9374;SDS011;4727;51.202;6.344;2023-06-19T19:42:25;3.13;;;2.83;;
9374;SDS011;4727;51.202;6.344;2023-06-19T19:44:51;3.40;;;3.10;;
9374;SDS011;4727;51.202;6.344;2023-06-19T19:47:17;3.00;;;2.80;;
9374;SDS011;4727;51.202;6.344;2023-06-19T19:49:43;3.33;;;3.03;;
9374;SDS011;4727;51.202;6.344;2023-06-19T19:52:09;4.72;;;3.35;;
9374;SDS011;4727;51.202;6.344;2023-06-19T19:54:35;4.80;;;3.22;;
9374;SDS011;4727;51.202;6.344;2023-06-19T19:57:00;2.85;;;2.65;;
9374;SDS011;4727;51.202;6.344;2023-06-19T19:59:26;3.17;;;2.88;;
9374;SDS011;4727;51.202;6.344;2023-06-19T20:01:52;3.47;;;3.17;;
9374;SDS011;4727;51.202;6.344;2023-06-19T20:04:18;3.33;;;3.13;;
9374;SDS011;4727;51.202;6.344;2023-06-19T20:06:44;3.50;;;3.20;;
9374;SDS011;4727;51.202;6.344;2023-06-19T20:09:09;5.07;;;3.05;;
9374;SDS011;4727;51.202;6.344;2023-06-19T20:11:35;6.78;;;3.13;;
9374;SDS011;4727;51.202;6.344;2023-06-19T20:14:01;3.35;;;3.15;;
9374;SDS011;4727;51.202;6.344;2023-06-19T20:16:27;3.17;;;2.88;;
9374;SDS011;4727;51.202;6.344;2023-06-19T20:18:53;3.50;;;3.20;;
9374;SDS011;4727;51.202;6.344;2023-06-19T20:21:18;3.72;;;3.40;;
9374;SDS011;4727;51.202;6.344;2023-06-19T20:23:44;4.07;;;3.70;;
9374;SDS011;4727;51.202;6.344;2023-06-19T20:26:09;3.75;;;3.45;;
9374;SDS011;4727;51.202;6.344;2023-06-19T20:28:35;3.28;;;3.08;;
9374;SDS011;4727;51.202;6.344;2023-06-19T20:31:01;3.28;;;3.08;;
9374;SDS011;4727;51.202;6.344;2023-06-19T20:33:26;3.97;;;3.47;;
9374;SDS011;4727;51.202;6.344;2023-06-19T20:35:52;6.22;;;3.85;;
9374;SDS011;4727;51.202;6.344;2023-06-19T20:38:18;4.57;;;3.75;;
9374;SDS011;4727;51.202;6.344;2023-06-19T20:40:46;3.90;;;3.50;;
9374;SDS011;4727;51.202;6.344;2023-06-19T20:43:12;3.50;;;3.20;;
9374;SDS011;4727;51.202;6.344;2023-06-19T20:45:38;4.40;;;3.42;;
9374;SDS011;4727;51.202;6.344;2023-06-19T20:48:06;3.53;;;3.22;;
9374;SDS011;4727;51.202;6.344;2023-06-19T20:50:32;3.35;;;3.05;;
9374;SDS011;4727;51.202;6.344;2023-06-19T20:52:57;5.32;;;3.38;;
9374;SDS011;4727;51.202;6.344;2023-06-19T20:55:23;3.28;;;3.08;;
9374;SDS011;4727;51.202;6.344;2023-06-19T20:57:49;3.58;;;3.28;;
9374;SDS011;4727;51.202;6.344;2023-06-19T21:00:14;5.70;;;3.33;;
9374;SDS011;4727;51.202;6.344;2023-06-19T21:02:40;4.18;;;3.13;;
9374;SDS011;4727;51.202;6.344;2023-06-19T21:05:06;3.95;;;3.53;;
9374;SDS011;4727;51.202;6.344;2023-06-19T21:07:33;3.10;;;2.90;;
9374;SDS011;4727;51.202;6.344;2023-06-19T21:09:59;3.47;;;3.17;;
9374;SDS011;4727;51.202;6.344;2023-06-19T21:12:25;3.95;;;2.85;;
9374;SDS011;4727;51.202;6.344;2023-06-19T21:14:50;3.80;;;3.40;;
9374;SDS011;4727;51.202;6.344;2023-06-19T21:32:26;3.75;;;3.45;;
9374;SDS011;4727;51.202;6.344;2023-06-19T21:34:52;5.07;;;3.55;;
9374;SDS011;4727;51.202;6.344;2023-06-19T21:37:17;4.22;;;3.83;;
9374;SDS011;4727;51.202;6.344;2023-06-19T21:39:43;4.25;;;3.40;;
9374;SDS011;4727;51.202;6.344;2023-06-19T21:42:09;3.35;;;3.08;;
9374;SDS011;4727;51.202;6.344;2023-06-19T21:44:34;3.60;;;3.30;;
9374;SDS011;4727;51.202;6.344;2023-06-19T21:47:00;5.93;;;3.97;;
9374;SDS011;4727;51.202;6.344;2023-06-19T21:49:25;4.10;;;3.65;;
9374;SDS011;4727;51.202;6.344;2023-06-19T21:51:51;3.63;;;3.33;;
9374;SDS011;4727;51.202;6.344;2023-06-19T21:54:17;6.78;;;3.92;;
9374;SDS011;4727;51.202;6.344;2023-06-19T21:56:42;3.83;;;3.47;;
9374;SDS011;4727;51.202;6.344;2023-06-19T21:59:08;3.33;;;3.13;;
9374;SDS011;4727;51.202;6.344;2023-06-19T22:01:33;5.00;;;4.50;;
9374;SDS011;4727;51.202;6.344;2023-06-19T22:03:59;6.15;;;4.00;;
9374;SDS011;4727;51.202;6.344;2023-06-19T22:06:24;4.30;;;3.75;;
9374;SDS011;4727;51.202;6.344;2023-06-19T22:08:50;9.00;;;4.22;;
9374;SDS011;4727;51.202;6.344;2023-06-19T22:11:15;4.22;;;3.75;;
9374;SDS011;4727;51.202;6.344;2023-06-19T22:13:41;4.55;;;4.13;;
9374;SDS011;4727;51.202;6.344;2023-06-19T22:16:07;4.45;;;4.05;;
9374;SDS011;4727;51.202;6.344;2023-06-19T22:18:32;4.15;;;3.83;;
9374;SDS011;4727;51.202;6.344;2023-06-19T22:20:58;4.90;;;4.47;;
9374;SDS011;4727;51.202;6.344;2023-06-19T22:23:24;4.88;;;4.03;;
9374;SDS011;4727;51.202;6.344;2023-06-19T22:25:51;3.90;;;3.60;;
9374;SDS011;4727;51.202;6.344;2023-06-19T22:28:17;5.07;;;4.15;;
9374;SDS011;4727;51.202;6.344;2023-06-19T22:30:43;4.18;;;3.83;;
9374;SDS011;4727;51.202;6.344;2023-06-19T22:33:09;5.53;;;4.25;;
9374;SDS011;4727;51.202;6.344;2023-06-19T22:35:34;4.80;;;4.03;;
9374;SDS011;4727;51.202;6.344;2023-06-19T22:38:00;4.20;;;3.80;;
9374;SDS011;4727;51.202;6.344;2023-06-19T22:40:25;5.53;;;4.18;;
9374;SDS011;4727;51.202;6.344;2023-06-19T22:42:51;4.82;;;4.43;;
9374;SDS011;4727;51.202;6.344;2023-06-19T22:45:17;4.55;;;4.15;;
9374;SDS011;4727;51.202;6.344;2023-06-19T22:47:43;4.45;;;3.83;;
9374;SDS011;4727;51.202;6.344;2023-06-19T22:50:10;4.60;;;4.03;;
9374;SDS011;4727;51.202;6.344;2023-06-19T22:52:36;5.53;;;4.53;;
9374;SDS011;4727;51.202;6.344;2023-06-19T22:55:02;4.68;;;4.25;;
9374;SDS011;4727;51.202;6.344;2023-06-19T22:57:29;4.68;;;4.18;;
9374;SDS011;4727;51.202;6.344;2023-06-19T23:00:08;5.47;;;4.60;;
9374;SDS011;4727;51.202;6.344;2023-06-19T23:02:38;5.53;;;4.20;;
9374;SDS011;4727;51.202;6.344;2023-06-19T23:05:05;5.97;;;4.38;;
9374;SDS011;4727;51.202;6.344;2023-06-19T23:07:31;4.40;;;4.00;;
9374;SDS011;4727;51.202;6.344;2023-06-19T23:09:58;4.28;;;3.88;;
9374;SDS011;4727;51.202;6.344;2023-06-19T23:12:24;4.68;;;4.28;;
9374;SDS011;4727;51.202;6.344;2023-06-19T23:14:50;5.03;;;4.30;;
9374;SDS011;4727;51.202;6.344;2023-06-19T23:17:16;6.78;;;5.00;;
9374;SDS011;4727;51.202;6.344;2023-06-19T23:19:41;4.97;;;4.43;;
9374;SDS011;4727;51.202;6.344;2023-06-19T23:22:08;5.75;;;4.30;;
9374;SDS011;4727;51.202;6.344;2023-06-19T23:24:35;4.55;;;4.15;;
9374;SDS011;4727;51.202;6.344;2023-06-19T23:27:01;5.03;;;4.53;;
9374;SDS011;4727;51.202;6.344;2023-06-19T23:29:27;5.28;;;4.55;;
9374;SDS011;4727;51.202;6.344;2023-06-19T23:31:52;4.95;;;4.55;;
9374;SDS011;4727;51.202;6.344;2023-06-19T23:34:18;5.00;;;4.05;;
9374;SDS011;4727;51.202;6.344;2023-06-19T23:36:43;4.53;;;4.13;;
9374;SDS011;4727;51.202;6.344;2023-06-19T23:39:09;5.40;;;4.80;;
9374;SDS011;4727;51.202;6.344;2023-06-19T23:41:34;6.22;;;4.65;;
9374;SDS011;4727;51.202;6.344;2023-06-19T23:44:00;7.63;;;4.28;;
9374;SDS011;4727;51.202;6.344;2023-06-19T23:46:25;5.82;;;3.80;;
9374;SDS011;4727;51.202;6.344;2023-06-19T23:48:51;4.32;;;3.97;;
9374;SDS011;4727;51.202;6.344;2023-06-19T23:51:17;5.20;;;4.40;;
9374;SDS011;4727;51.202;6.344;2023-06-19T23:53:43;5.13;;;4.63;;
9374;SDS011;4727;51.202;6.344;2023-06-19T23:56:08;6.40;;;5.22;;
9374;SDS011;4727;51.202;6.344;2023-06-19T23:58:34;5.07;;;4.63;;
